Terminal Aerodrome Forecast
Issued by NWS Sterling, VA

Current Version | Previous Version | Graphics & Text | Print | Product List | Glossary On
Versions: 1 2 3 4 5 6 7 8 9 10 11 12 13 14 15 16 17 18 19 20 21 22
000
FTUS41 KLWX 261734
TAFIAD
TAF
KIAD 261734Z 2618/2724 36010G15KT P6SM SCT050
     FM262200 36007KT P6SM SCT050
     FM270100 VRB03KT P6SM SCT050
     FM271100 32007KT P6SM BKN050
     FM271400 32013G20KT P6SM BKN050
     FM272200 32012KT P6SM BKN050=

USA.gov is the U.S. government's official web portal to all federal, state and local government web resources and services.